Portada
METAR-TAF:

METAR-TAF

Aeroports :

Aeroport de Pemba

Pemba, Moçambic

latitud: 12-59S, longitud: 040-32E, altitud: 101 m

Observació

L'informe es va fer fa 2 hores i 37 minuts, a les 21:00 UTC
Vent 5 kt del Sud-Oest
Temperatura 23°C
Humitat 83%
Pressió 1021 hPa
Visibilitat 10 km o més
Escasses núvols a una alçada de 2000 ft

METAR: FQPB 232100Z 23005KT 9999 FEW020 23/20 Q1021

Hora: 01:37 (23:37 UTC)

Pronòstic

L'informe es va fer fa 1 hora i 37 minuts, a les 22:00 UTC
Pronòstic vàlid del 24 a les 00 UTC al 25 a les 00 UTC
Vent 8 kt del Sud-Oest
Visibilitat 10 km o més
Escasses núvols a una alçada de 2000 ft
Evolucionant progressivament
l' 24 a les 12 UTC al 24 a les 14 UTC
Vent 12 kt del Sud-Est

TAF: FQPB 232200Z 2400/2500 23008KT 9999 FEW020 TX28/2413Z TN19/2402Z BECMG 2412/2414 13012KT

Observacions i pronòstics meteorològics de més de 4000 aeroports (METAR i TAF).

Les estacions disponibles són els punts grocs i vermells al mapa.

Posi el ratolí al punt desitjat per veure el nom de l'estació.

Feu clic per veure les observacions i els pronòstics meteorològics.

Per canviar el mapa: feu clic els botons verds amb una creu de color negre per apropar; al botó verd amb un guió per allunyar la imatge; o en les fletxes verdes per a mapes adjacents.


METAR-TAF: